createdAt,value
2016-09-07T00:03:50.276Z,1017.93
2016-09-07T00:08:46.961Z,1017.99
2016-09-07T00:13:43.575Z,1017.91
2016-09-07T00:18:40.240Z,1017.95
2016-09-07T00:23:36.833Z,1017.93
2016-09-07T00:28:33.408Z,1017.82
2016-09-07T00:33:29.960Z,1017.87
2016-09-07T00:38:26.721Z,1017.82
2016-09-07T00:43:23.142Z,1017.75
2016-09-07T00:48:20.093Z,1017.69
2016-09-07T00:53:16.774Z,1017.62
2016-09-07T00:58:13.614Z,1017.64
2016-09-07T01:03:10.216Z,1017.61
2016-09-07T01:08:06.762Z,1017.63
2016-09-07T01:13:03.463Z,1017.60
2016-09-07T01:18:00.018Z,1017.60
2016-09-07T01:22:56.671Z,1017.62
2016-09-07T01:27:53.160Z,1017.64
2016-09-07T01:32:50.163Z,1017.61
2016-09-07T01:37:47.137Z,1017.58
2016-09-07T01:42:43.806Z,1017.52
2016-09-07T01:47:40.966Z,1017.61
2016-09-07T01:52:37.742Z,1017.47
2016-09-07T01:57:34.368Z,1017.41
2016-09-07T02:02:31.337Z,1017.44
2016-09-07T02:07:28.048Z,1017.45
2016-09-07T02:12:24.484Z,1017.42
2016-09-07T02:17:20.963Z,1017.45
2016-09-07T02:22:17.437Z,1017.48
2016-09-07T02:27:14.519Z,1017.35
2016-09-07T02:32:11.123Z,1017.35
2016-09-07T02:37:07.645Z,1017.31
2016-09-07T02:42:03.989Z,1017.31
2016-09-07T02:47:00.314Z,1017.32
2016-09-07T02:51:56.815Z,1017.30
2016-09-07T02:56:53.467Z,1017.27
2016-09-07T03:01:49.916Z,1017.32
2016-09-07T03:06:46.469Z,1017.18
2016-09-07T03:11:43.330Z,1017.20
2016-09-07T03:16:40.194Z,1017.22
2016-09-07T03:21:36.547Z,1017.24
2016-09-07T03:26:32.985Z,1017.26
2016-09-07T03:31:29.588Z,1017.16
2016-09-07T03:36:26.101Z,1017.14
2016-09-07T03:41:22.587Z,1017.08
2016-09-07T03:46:19.111Z,1017.12
2016-09-07T03:51:16.205Z,1017.03
2016-09-07T03:56:15.549Z,1016.96
2016-09-07T04:01:11.491Z,1016.97
2016-09-07T04:06:07.993Z,1016.88
2016-09-07T04:11:04.994Z,1016.84
2016-09-07T04:16:01.703Z,1016.82
2016-09-07T04:20:58.184Z,1016.80
2016-09-07T04:25:54.764Z,1016.77
2016-09-07T04:30:51.839Z,1016.86
2016-09-07T04:35:48.950Z,1016.87
2016-09-07T04:40:45.465Z,1016.93
2016-09-07T04:45:42.038Z,1016.87
2016-09-07T04:50:39.013Z,1016.90
2016-09-07T04:55:35.718Z,1016.87
2016-09-07T05:00:32.031Z,1016.92
2016-09-07T05:05:28.776Z,1016.88
2016-09-07T05:10:25.660Z,1017.04
2016-09-07T05:15:22.187Z,1016.97
2016-09-07T05:20:19.185Z,1016.88
2016-09-07T05:25:15.671Z,1016.86
2016-09-07T05:30:12.390Z,1016.92
2016-09-07T05:35:09.760Z,1016.92
2016-09-07T05:40:07.516Z,1016.92
2016-09-07T05:45:04.054Z,1016.98
2016-09-07T05:50:01.036Z,1016.94
2016-09-07T05:54:57.530Z,1016.94
2016-09-07T05:59:54.247Z,1016.92
2016-09-07T06:04:50.740Z,1016.93
2016-09-07T06:09:47.321Z,1016.89
2016-09-07T06:14:43.841Z,1016.94
2016-09-07T06:19:41.503Z,1016.86
2016-09-07T06:24:37.825Z,1016.97
2016-09-07T06:29:34.471Z,1016.97
2016-09-07T06:34:33.618Z,1016.90
2016-09-07T06:39:29.787Z,1016.84
2016-09-07T06:44:26.461Z,1016.86
2016-09-07T06:49:23.329Z,1016.83
2016-09-07T06:54:20.081Z,1016.87
2016-09-07T06:59:16.839Z,1016.87
2016-09-07T07:04:13.473Z,1016.86
2016-09-07T07:09:10.549Z,1016.85
2016-09-07T07:14:07.067Z,1016.85
2016-09-07T07:19:03.781Z,1016.81
2016-09-07T07:24:00.505Z,1016.70
2016-09-07T07:28:57.139Z,1016.74
2016-09-07T07:33:53.737Z,1016.72
2016-09-07T07:38:50.418Z,1016.84
2016-09-07T07:43:47.088Z,1016.68
2016-09-07T07:48:44.147Z,1016.66
2016-09-07T07:53:41.046Z,1016.63
2016-09-07T07:58:38.023Z,1016.61
2016-09-07T08:03:34.765Z,1016.66
2016-09-07T08:08:31.847Z,1016.59
2016-09-07T08:13:28.754Z,1016.63
2016-09-07T08:18:26.242Z,1016.54
2016-09-07T08:23:23.371Z,1016.45
2016-09-07T08:28:20.253Z,1016.52
2016-09-07T08:33:17.429Z,1016.42
2016-09-07T08:38:14.410Z,1016.46
2016-09-07T08:43:11.130Z,1016.44
2016-09-07T08:48:07.984Z,1016.44
2016-09-07T08:53:04.325Z,1016.48
2016-09-07T08:58:00.656Z,1016.39
2016-09-07T09:02:57.097Z,1016.39
2016-09-07T09:07:53.962Z,1016.33
2016-09-07T09:12:50.222Z,1016.28
2016-09-07T09:17:47.003Z,1016.20
2016-09-07T09:22:43.377Z,1016.02
2016-09-07T09:27:40.125Z,1016.05
2016-09-07T09:32:36.516Z,1016.00
2016-09-07T09:37:33.459Z,1015.92
2016-09-07T09:42:29.972Z,1015.90
2016-09-07T09:47:26.552Z,1015.78
2016-09-07T09:52:23.046Z,1015.74
2016-09-07T09:57:19.678Z,1015.70
2016-09-07T10:02:16.242Z,1015.56
2016-09-07T10:07:13.113Z,1015.65
2016-09-07T10:12:09.613Z,1015.43
2016-09-07T10:17:06.345Z,1015.36
2016-09-07T10:22:05.496Z,1015.51
2016-09-07T10:27:01.601Z,1015.40
2016-09-07T10:31:58.212Z,1015.24
2016-09-07T10:36:54.799Z,1015.18
2016-09-07T10:41:51.317Z,1015.14
2016-09-07T10:46:47.928Z,1015.17
2016-09-07T10:51:44.938Z,1015.05
2016-09-07T10:56:41.804Z,1015.07
2016-09-07T11:01:38.870Z,1015.06
2016-09-07T11:06:36.893Z,1014.88
2016-09-07T11:11:33.036Z,1014.88
2016-09-07T11:16:29.639Z,1014.92
2016-09-07T11:21:26.340Z,1014.87
2016-09-07T11:26:22.830Z,1014.76
2016-09-07T11:31:19.497Z,1014.79
2016-09-07T11:36:16.095Z,1014.71
2016-09-07T11:41:12.613Z,1014.62
2016-09-07T11:46:09.412Z,1014.46
2016-09-07T11:51:06.057Z,1014.41
2016-09-07T11:56:05.110Z,1014.46
2016-09-07T12:01:01.367Z,1014.37
2016-09-07T12:05:58.055Z,1014.31
2016-09-07T12:10:54.755Z,1014.22
2016-09-07T12:15:53.868Z,1014.06
2016-09-07T12:20:49.982Z,1013.99
2016-09-07T12:25:46.609Z,1013.98
2016-09-07T12:30:43.362Z,1013.90
2016-09-07T12:35:40.025Z,1013.86
2016-09-07T12:40:36.605Z,1013.76
2016-09-07T12:45:33.183Z,1013.72
2016-09-07T12:50:29.660Z,1013.65
2016-09-07T12:55:26.457Z,1013.55
2016-09-07T13:00:23.084Z,1013.51
2016-09-07T13:05:19.631Z,1013.53
2016-09-07T13:10:16.186Z,1013.52
2016-09-07T13:15:12.828Z,1013.47
2016-09-07T13:20:11.956Z,1013.42
2016-09-07T13:25:08.127Z,1013.36
2016-09-07T13:30:04.793Z,1013.28
2016-09-07T13:35:01.497Z,1013.20
2016-09-07T13:39:58.151Z,1013.20
2016-09-07T13:44:54.917Z,1013.11
2016-09-07T13:49:51.756Z,1013.05
2016-09-07T13:54:48.659Z,1013.04
2016-09-07T13:59:45.040Z,1012.96
2016-09-07T14:04:41.861Z,1012.88
2016-09-07T14:09:38.484Z,1012.87
2016-09-07T14:14:35.244Z,1012.71
2016-09-07T14:19:31.944Z,1012.64
2016-09-07T14:24:28.563Z,1012.61
2016-09-07T14:29:25.161Z,1012.45
2016-09-07T14:34:21.922Z,1012.46
2016-09-07T14:39:20.181Z,1012.41
2016-09-07T14:44:16.422Z,1012.30
2016-09-07T14:49:13.416Z,1012.21
2016-09-07T14:54:10.139Z,1012.12
2016-09-07T14:59:06.886Z,1012.21
2016-09-07T15:04:03.550Z,1012.07
2016-09-07T15:09:00.170Z,1011.99
2016-09-07T15:13:57.349Z,1012.03
2016-09-07T15:18:54.376Z,1011.92
2016-09-07T15:23:50.896Z,1011.92
2016-09-07T15:28:47.959Z,1011.82
2016-09-07T15:33:44.818Z,1011.76
2016-09-07T15:38:41.590Z,1011.61
2016-09-07T15:43:38.655Z,1011.46
2016-09-07T15:48:35.396Z,1011.44
2016-09-07T15:53:31.965Z,1011.41
2016-09-07T15:58:28.708Z,1011.34
2016-09-07T16:03:25.567Z,1011.20
2016-09-07T16:08:22.446Z,1011.18
2016-09-07T16:13:19.233Z,1011.13
2016-09-07T16:18:15.944Z,1011.04
2016-09-07T16:23:12.596Z,1010.90
2016-09-07T16:28:09.829Z,1010.83
2016-09-07T16:33:06.596Z,1010.79
2016-09-07T16:38:03.150Z,1010.69
2016-09-07T16:42:59.928Z,1010.62
2016-09-07T16:47:57.256Z,1010.65
2016-09-07T16:52:56.484Z,1010.54
2016-09-07T16:57:52.606Z,1010.54
2016-09-07T17:02:49.338Z,1010.49
2016-09-07T17:07:48.549Z,1010.48
2016-09-07T17:12:44.970Z,1010.44
2016-09-07T17:17:41.600Z,1010.48
2016-09-07T17:22:38.397Z,1010.43
2016-09-07T17:27:35.314Z,1010.35
2016-09-07T17:32:31.987Z,1010.39
2016-09-07T17:37:28.675Z,1010.46
2016-09-07T17:42:25.448Z,1010.46
2016-09-07T17:47:22.139Z,1010.47
2016-09-07T17:52:19.569Z,1010.44
2016-09-07T17:57:16.839Z,1010.42
2016-09-07T18:02:13.417Z,1010.30
2016-09-07T18:07:10.134Z,1010.26
2016-09-07T18:12:07.924Z,1010.31
2016-09-07T18:17:04.333Z,1010.38
2016-09-07T18:22:01.680Z,1010.41
2016-09-07T18:26:58.379Z,1010.43
2016-09-07T18:31:55.187Z,1010.45
2016-09-07T18:36:52.485Z,1010.45
2016-09-07T18:41:49.204Z,1010.43
2016-09-07T18:46:45.996Z,1010.43
2016-09-07T18:51:42.974Z,1010.38
2016-09-07T18:56:39.796Z,1010.39
2016-09-07T19:01:36.684Z,1010.38
2016-09-07T19:06:33.577Z,1010.33
2016-09-07T19:11:30.457Z,1010.24
2016-09-07T19:16:27.726Z,1010.16
2016-09-07T19:21:24.591Z,1010.23
2016-09-07T19:26:24.581Z,1010.14
2016-09-07T19:31:20.931Z,1010.18
2016-09-07T19:36:17.722Z,1010.18
2016-09-07T19:41:14.698Z,1010.13
2016-09-07T19:46:11.183Z,1010.12
2016-09-07T19:51:08.089Z,1010.00
2016-09-07T19:56:05.082Z,1009.99
2016-09-07T20:01:01.999Z,1009.98
2016-09-07T20:05:58.635Z,1009.85
2016-09-07T20:10:56.832Z,1009.82
2016-09-07T20:15:53.126Z,1009.86
2016-09-07T20:20:50.018Z,1009.86
2016-09-07T20:25:47.061Z,1009.86
2016-09-07T20:30:43.747Z,1009.83
2016-09-07T20:35:40.373Z,1009.81
2016-09-07T20:40:36.787Z,1009.83
2016-09-07T20:45:35.940Z,1009.79
2016-09-07T20:50:32.227Z,1009.63
2016-09-07T20:55:29.028Z,1009.62
2016-09-07T21:00:25.585Z,1009.63
2016-09-07T21:05:22.221Z,1009.59
2016-09-07T21:10:18.611Z,1009.51
2016-09-07T21:15:15.270Z,1009.48
2016-09-07T21:20:11.830Z,1009.45
2016-09-07T21:25:08.401Z,1009.44
2016-09-07T21:30:04.976Z,1009.40
2016-09-07T21:35:01.612Z,1009.36
2016-09-07T21:39:58.099Z,1009.45
2016-09-07T21:44:54.703Z,1009.39
2016-09-07T21:49:51.369Z,1009.33
2016-09-07T21:54:50.412Z,1009.26
2016-09-07T21:59:46.134Z,1009.22
2016-09-07T22:04:42.639Z,1009.12
2016-09-07T22:09:39.261Z,1009.20
2016-09-07T22:14:35.805Z,1009.24
2016-09-07T22:19:32.397Z,1009.19
2016-09-07T22:24:29.068Z,1009.17
2016-09-07T22:29:25.773Z,1009.09
2016-09-07T22:34:22.510Z,1009.16
2016-09-07T22:39:19.245Z,1009.05
2016-09-07T22:44:15.962Z,1008.99
2016-09-07T22:49:12.621Z,1009.00
2016-09-07T22:54:09.056Z,1008.84
2016-09-07T22:59:05.783Z,1008.94
2016-09-07T23:04:02.263Z,1008.80
2016-09-07T23:08:59.684Z,1008.85
2016-09-07T23:13:57.356Z,1008.79
2016-09-07T23:18:53.838Z,1008.70
2016-09-07T23:23:50.306Z,1008.61
2016-09-07T23:28:46.960Z,1008.63
2016-09-07T23:33:43.736Z,1008.45
2016-09-07T23:38:40.594Z,1008.46
2016-09-07T23:43:37.987Z,1008.35
2016-09-07T23:48:34.777Z,1008.32
2016-09-07T23:53:31.267Z,1008.21
2016-09-07T23:58:27.747Z,1008.11
